Time;durP1;ratioP1;P1;durP2;ratioP2;P2;SDS_P1;SDS_P2;PMS_P1;PMS_P2;Temp;Humidity;BMP_temperature;BMP_pressure;BME280_temperature;BME280_humidity;BME280_pressure;Samples;Min_cycle;Max_cycle;Signal;HPM_P1;HPM_P2
2023/01/02 00:00:42;;;;;;;12.80;6.00;;;;;;;;;;106785;1301;22044;-79
2023/01/02 00:03:25;;;;;;;13.30;5.90;;;;;;;;;;106865;1309;22910;-79
2023/01/02 00:05:51;;;;;;;11.20;5.40;;;;;;;;;;106674;1309;22070;-79
2023/01/02 00:08:18;;;;;;;12.50;5.10;;;;;;;;;;106776;1306;22061;-77
2023/01/02 00:10:44;;;;;;;12.20;5.60;;;;;;;;;;106922;1306;22847;-79
2023/01/02 00:13:11;;;;;;;13.30;5.90;;;;;;;;;;106844;1306;22084;-76
2023/01/02 00:15:38;;;;;;;13.30;5.90;;;;;;;;;;106717;1306;22143;-77
2023/01/02 00:18:05;;;;;;;12.40;6.10;;;;;;;;;;106834;1310;22132;-79
2023/01/02 00:20:32;;;;;;;13.10;5.50;;;;;;;;;;106766;1302;22094;-79
2023/01/02 00:22:59;;;;;;;12.10;6.00;;;;;;;;;;106770;1308;22042;-78
2023/01/02 00:25:26;;;;;;;13.20;5.90;;;;;;;;;;106713;1310;22364;-79
2023/01/02 00:27:53;;;;;;;12.70;5.00;;;;;;;;;;107015;1291;22306;-79
2023/01/02 00:30:20;;;;;;;14.20;6.50;;;;;;;;;;106750;1307;22061;-78
2023/01/02 00:32:47;;;;;;;12.70;5.60;;;;;;;;;;106857;1302;21960;-78
2023/01/02 00:35:13;;;;;;;13.10;5.80;;;;;;;;;;106723;1306;22066;-78
2023/01/02 00:37:40;;;;;;;12.50;5.50;;;;;;;;;;106735;1306;22010;-78
2023/01/02 00:40:12;;;;;;;13.20;5.30;;;;;;;;;;106770;1308;22057;-79
2023/01/02 00:42:39;;;;;;;12.10;5.00;;;;;;;;;;106702;1310;22064;-78
2023/01/02 00:45:06;;;;;;;12.10;5.00;;;;;;;;;;106863;1310;22087;-78
2023/01/02 00:47:33;;;;;;;12.00;5.20;;;;;;;;;;106849;1308;22092;-78
2023/01/02 00:50:00;;;;;;;12.90;5.70;;;;;;;;;;106817;1307;22064;-77
2023/01/02 00:52:27;;;;;;;13.10;4.90;;;;;;;;;;106899;1306;22498;-78
2023/01/02 00:54:54;;;;;;;11.20;5.10;;;;;;;;;;106730;1306;22084;-78
2023/01/02 00:57:20;;;;;;;12.80;5.10;;;;;;;;;;106755;1306;22356;-79
2023/01/02 00:59:47;;;;;;;11.80;4.90;;;;;;;;;;107025;1301;22076;-78
2023/01/02 01:02:13;;;;;;;13.20;5.30;;;;;;;;;;106805;1295;22149;-78
2023/01/02 01:04:40;;;;;;;12.60;5.40;;;;;;;;;;106766;1292;22052;-79
2023/01/02 01:07:07;;;;;;;12.20;5.00;;;;;;;;;;106701;1310;22056;-78
2023/01/02 01:09:33;;;;;;;12.20;5.30;;;;;;;;;;106720;1309;22141;-78
2023/01/02 01:12:00;;;;;;;11.40;5.10;;;;;;;;;;106902;1308;22077;-78
2023/01/02 01:14:26;;;;;;;13.20;5.90;;;;;;;;;;106760;1310;22716;-78
2023/01/02 01:16:53;;;;;;;12.80;5.20;;;;;;;;;;106924;1308;22063;-78
2023/01/02 01:19:20;;;;;;;11.40;5.10;;;;;;;;;;106860;1309;22082;-79
2023/01/02 01:21:47;;;;;;;15.20;5.80;;;;;;;;;;106740;1309;22063;-78
2023/01/02 01:24:14;;;;;;;17.10;6.30;;;;;;;;;;106703;1303;22075;-78
2023/01/02 01:26:40;;;;;;;12.90;5.20;;;;;;;;;;106642;1310;22762;-79
2023/01/02 01:29:07;;;;;;;16.70;6.60;;;;;;;;;;106710;1310;21840;-79
2023/01/02 01:31:34;;;;;;;16.00;6.30;;;;;;;;;;106759;1309;22840;-79
2023/01/02 01:34:00;;;;;;;14.00;5.80;;;;;;;;;;106738;1310;22090;-79
2023/01/02 01:36:27;;;;;;;16.20;6.60;;;;;;;;;;106865;1310;22034;-78
2023/01/02 01:38:54;;;;;;;14.40;5.80;;;;;;;;;;106845;1309;22099;-77
2023/01/02 01:41:22;;;;;;;15.80;6.10;;;;;;;;;;106705;1295;22071;-79
2023/01/02 01:43:51;;;;;;;12.70;5.30;;;;;;;;;;106823;1308;22051;-79
2023/01/02 01:46:26;;;;;;;11.60;5.00;;;;;;;;;;106837;1308;22112;-79
2023/01/02 01:48:58;;;;;;;12.80;5.20;;;;;;;;;;106829;1308;22671;-79
2023/01/02 01:51:26;;;;;;;11.10;4.80;;;;;;;;;;106730;1310;22088;-79
2023/01/02 01:53:56;;;;;;;12.30;4.80;;;;;;;;;;106747;1309;22047;-80
2023/01/02 01:56:22;;;;;;;12.10;5.20;;;;;;;;;;106900;1310;22718;-79
2023/01/02 01:58:49;;;;;;;12.30;5.00;;;;;;;;;;106753;1309;22086;-79
2023/01/02 02:01:16;;;;;;;12.00;4.70;;;;;;;;;;106745;1309;22404;-78
2023/01/02 02:03:44;;;;;;;12.10;5.20;;;;;;;;;;106694;1309;22090;-78
2023/01/02 02:06:11;;;;;;;11.00;5.00;;;;;;;;;;106941;1297;22739;-80
2023/01/02 02:09:04;;;;;;;10.80;4.60;;;;;;;;;;106639;1311;22050;-79
2023/01/02 02:11:31;;;;;;;13.10;4.70;;;;;;;;;;106671;1310;22067;-78
2023/01/02 02:13:59;;;;;;;10.40;4.30;;;;;;;;;;106844;1310;22105;-78
2023/01/02 02:16:30;;;;;;;12.90;4.30;;;;;;;;;;106714;1310;22202;-78
2023/01/02 02:19:03;;;;;;;9.80;3.90;;;;;;;;;;106726;1310;22070;-78
2023/01/02 02:21:29;;;;;;;9.20;4.10;;;;;;;;;;106731;1309;22710;-79
2023/01/02 02:24:08;;;;;;;12.00;4.50;;;;;;;;;;106707;1309;22067;-78
2023/01/02 02:26:41;;;;;;;11.90;4.70;;;;;;;;;;106983;1290;22080;-78
2023/01/02 02:29:26;;;;;;;10.60;4.40;;;;;;;;;;106961;1302;22031;-78
2023/01/02 02:32:11;;;;;;;11.70;4.20;;;;;;;;;;106655;1308;22060;-78
2023/01/02 02:34:44;;;;;;;11.00;4.80;;;;;;;;;;106674;1310;22690;-78
2023/01/02 02:37:29;;;;;;;10.60;4.40;;;;;;;;;;106707;1310;22059;-78
2023/01/02 02:39:59;;;;;;;10.60;4.60;;;;;;;;;;106702;1310;22130;-79
2023/01/02 02:42:31;;;;;;;9.10;4.50;;;;;;;;;;106698;1310;22065;-78
2023/01/02 02:45:06;;;;;;;12.00;4.90;;;;;;;;;;106728;1310;21923;-78
2023/01/02 02:47:33;;;;;;;13.00;5.20;;;;;;;;;;106846;1309;22747;-78
2023/01/02 02:50:00;;;;;;;10.70;4.60;;;;;;;;;;106730;1310;22049;-78
2023/01/02 02:52:36;;;;;;;10.50;4.50;;;;;;;;;;106934;1303;22075;-78
2023/01/02 02:55:09;;;;;;;10.30;4.50;;;;;;;;;;106644;1310;22069;-78
2023/01/02 02:57:37;;;;;;;9.70;3.90;;;;;;;;;;106662;1309;22076;-79
2023/01/02 03:00:05;;;;;;;10.10;4.30;;;;;;;;;;106707;1310;21991;-79
2023/01/02 03:02:32;;;;;;;11.30;4.60;;;;;;;;;;106649;1315;22837;-78
2023/01/02 03:05:02;;;;;;;11.10;4.00;;;;;;;;;;106673;1306;22046;-79
2023/01/02 03:07:53;;;;;;;9.00;3.60;;;;;;;;;;106653;1309;22079;-79
2023/01/02 03:10:23;;;;;;;11.80;4.30;;;;;;;;;;106703;1309;22067;-79
2023/01/02 03:13:03;;;;;;;11.20;4.00;;;;;;;;;;106659;1308;22040;-79
2023/01/02 03:15:42;;;;;;;10.90;3.70;;;;;;;;;;106721;1310;22766;-78
2023/01/02 03:18:13;;;;;;;9.50;3.80;;;;;;;;;;106722;1309;22096;-78
2023/01/02 03:20:43;;;;;;;10.00;4.00;;;;;;;;;;106626;1310;22183;-79
2023/01/02 03:23:14;;;;;;;10.00;3.80;;;;;;;;;;106642;1309;23084;-78
2023/01/02 03:25:43;;;;;;;9.60;4.00;;;;;;;;;;106640;1310;21970;-79
2023/01/02 03:28:11;;;;;;;10.20;4.10;;;;;;;;;;106760;1307;22049;-77
2023/01/02 03:30:39;;;;;;;11.00;4.20;;;;;;;;;;106749;1307;22049;-78
2023/01/02 03:33:10;;;;;;;8.90;3.50;;;;;;;;;;106685;1307;22079;-78
2023/01/02 03:35:40;;;;;;;9.60;3.60;;;;;;;;;;106767;1302;22057;-78
2023/01/02 03:38:12;;;;;;;9.40;3.90;;;;;;;;;;106658;1310;22087;-78
2023/01/02 03:40:42;;;;;;;11.00;3.90;;;;;;;;;;106732;1310;22764;-78
2023/01/02 03:43:18;;;;;;;9.80;3.80;;;;;;;;;;106677;1309;22088;-78
2023/01/02 03:45:49;;;;;;;8.60;3.60;;;;;;;;;;106672;1309;22081;-78
2023/01/02 03:48:16;;;;;;;8.70;3.50;;;;;;;;;;106695;1309;22004;-78
2023/01/02 03:50:44;;;;;;;9.80;3.30;;;;;;;;;;106912;1297;22689;-78
2023/01/02 03:53:12;;;;;;;10.60;3.60;;;;;;;;;;106705;1307;22051;-78
2023/01/02 03:55:40;;;;;;;10.20;3.70;;;;;;;;;;106649;1310;22066;-79
2023/01/02 03:58:26;;;;;;;10.10;3.70;;;;;;;;;;106749;1310;22073;-78
2023/01/02 04:01:03;;;;;;;7.80;3.00;;;;;;;;;;106668;1310;22790;-80
2023/01/02 04:03:38;;;;;;;8.40;3.30;;;;;;;;;;106744;1307;22095;-79
2023/01/02 04:06:13;;;;;;;9.70;3.60;;;;;;;;;;106820;1308;22038;-78
2023/01/02 04:09:05;;;;;;;8.30;3.80;;;;;;;;;;106701;1296;22725;-79
2023/01/02 04:11:37;;;;;;;8.10;2.80;;;;;;;;;;106665;1310;22891;-78
2023/01/02 04:14:10;;;;;;;7.90;3.30;;;;;;;;;;106657;1310;22803;-79
2023/01/02 04:16:40;;;;;;;8.20;3.70;;;;;;;;;;106688;1310;21950;-78
2023/01/02 04:19:11;;;;;;;8.20;3.10;;;;;;;;;;106656;1310;22075;-79
2023/01/02 04:21:42;;;;;;;8.50;3.30;;;;;;;;;;106661;1310;22075;-79
2023/01/02 04:24:12;;;;;;;8.50;3.30;;;;;;;;;;106660;1310;22048;-78
2023/01/02 04:26:47;;;;;;;7.70;3.40;;;;;;;;;;106659;1310;22105;-81
2023/01/02 04:29:17;;;;;;;10.00;3.80;;;;;;;;;;106715;1310;22099;-78
2023/01/02 04:31:57;;;;;;;9.20;3.60;;;;;;;;;;106796;1308;22086;-77
2023/01/02 04:34:28;;;;;;;10.30;3.60;;;;;;;;;;106708;1310;22768;-78
2023/01/02 04:36:58;;;;;;;9.10;4.30;;;;;;;;;;106666;1310;22085;-79
2023/01/02 04:39:28;;;;;;;9.00;3.70;;;;;;;;;;106689;1310;22052;-78
2023/01/02 04:41:57;;;;;;;7.90;3.30;;;;;;;;;;106662;1310;22078;-78
2023/01/02 04:44:26;;;;;;;7.40;3.20;;;;;;;;;;106683;1310;21933;-78
2023/01/02 04:46:56;;;;;;;8.40;3.10;;;;;;;;;;106702;1310;22091;-77
2023/01/02 04:49:26;;;;;;;7.00;3.00;;;;;;;;;;106721;1310;22664;-78
2023/01/02 04:51:56;;;;;;;8.90;3.50;;;;;;;;;;106720;1310;22085;-78
2023/01/02 04:54:25;;;;;;;9.20;3.20;;;;;;;;;;106690;1308;22797;-78
2023/01/02 04:56:55;;;;;;;8.60;3.40;;;;;;;;;;106679;1310;22083;-78
2023/01/02 04:59:24;;;;;;;8.60;3.40;;;;;;;;;;106691;1300;22075;-77
2023/01/02 05:08:47;;;;;;;7.40;2.90;;;;;;;;;;100428;1336;544765;-84
2023/01/02 05:11:15;;;;;;;9.70;3.00;;;;;;;;;;102508;1319;25350;-82
2023/01/02 05:13:42;;;;;;;8.20;3.10;;;;;;;;;;102494;1318;22485;-80
2023/01/02 05:16:09;;;;;;;9.00;2.80;;;;;;;;;;102638;1317;25258;-84
2023/01/02 05:18:36;;;;;;;10.00;3.90;;;;;;;;;;102327;1319;22616;-84
2023/01/02 05:21:03;;;;;;;9.20;3.20;;;;;;;;;;103049;1288;24315;-83
2023/01/02 05:23:49;;;;;;;7.40;3.10;;;;;;;;;;102214;1310;1642707;-79
2023/01/02 05:26:16;;;;;;;11.20;4.00;;;;;;;;;;103405;1304;24403;-78
2023/01/02 05:28:43;;;;;;;8.20;2.70;;;;;;;;;;103524;1307;22581;-80
2023/01/02 05:31:10;;;;;;;8.10;2.90;;;;;;;;;;103434;1307;25286;-81
2023/01/02 05:33:37;;;;;;;7.50;2.90;;;;;;;;;;103496;1306;24318;-88
2023/01/02 05:36:05;;;;;;;8.60;2.80;;;;;;;;;;103355;1307;24292;-83
2023/01/02 05:38:33;;;;;;;9.10;3.10;;;;;;;;;;103325;1306;23149;-80
2023/01/02 05:41:03;;;;;;;10.70;4.50;;;;;;;;;;103363;1307;25297;-84
2023/01/02 05:43:31;;;;;;;49.40;23.20;;;;;;;;;;103342;1303;24680;-84
2023/01/02 05:46:05;;;;;;;26.90;12.20;;;;;;;;;;103298;1307;22460;-84
2023/01/02 05:48:31;;;;;;;10.70;4.90;;;;;;;;;;103230;1307;25287;-78
2023/01/02 05:51:02;;;;;;;8.70;2.70;;;;;;;;;;103465;1307;22510;-86
2023/01/02 05:53:28;;;;;;;6.60;2.40;;;;;;;;;;103333;1298;22464;-80
2023/01/02 05:56:02;;;;;;;7.20;2.30;;;;;;;;;;103516;1300;22625;-83
2023/01/02 05:58:33;;;;;;;8.70;2.40;;;;;;;;;;103351;1307;25218;-84
2023/01/02 06:01:04;;;;;;;8.20;2.10;;;;;;;;;;103232;1304;22725;-80
2023/01/02 06:03:30;;;;;;;6.40;2.10;;;;;;;;;;103455;1307;22487;-81
2023/01/02 06:06:00;;;;;;;6.60;2.10;;;;;;;;;;103526;1302;24325;-80
2023/01/02 06:08:27;;;;;;;9.00;2.30;;;;;;;;;;103527;1307;25190;-81
2023/01/02 06:10:54;;;;;;;8.30;2.40;;;;;;;;;;103334;1287;24891;-79
2023/01/02 06:13:20;;;;;;;7.70;2.30;;;;;;;;;;103321;1302;22857;-81
2023/01/02 06:15:47;;;;;;;6.90;2.00;;;;;;;;;;103278;1304;22713;-86
2023/01/02 06:18:14;;;;;;;7.80;2.00;;;;;;;;;;103274;1310;25248;-81
2023/01/02 06:20:40;;;;;;;10.80;2.20;;;;;;;;;;103532;1307;24382;-83
2023/01/02 06:23:07;;;;;;;6.80;2.70;;;;;;;;;;103308;1307;22457;-88
2023/01/02 06:25:34;;;;;;;6.00;2.20;;;;;;;;;;103255;1294;22465;-82
2023/01/02 06:28:00;;;;;;;7.60;2.40;;;;;;;;;;103434;1302;24452;-78
2023/01/02 06:30:27;;;;;;;10.80;2.10;;;;;;;;;;103277;1302;22582;-77
2023/01/02 06:32:54;;;;;;;15.90;2.10;;;;;;;;;;103300;1310;21703;-81
2023/01/02 06:35:21;;;;;;;11.00;2.20;;;;;;;;;;103271;1310;25363;-78
2023/01/02 06:37:48;;;;;;;9.60;2.00;;;;;;;;;;103318;1302;22464;-85
2023/01/02 06:40:15;;;;;;;7.80;1.70;;;;;;;;;;103260;1297;22504;-81
2023/01/02 06:42:43;;;;;;;7.70;2.10;;;;;;;;;;103383;1307;25472;-79
2023/01/02 06:45:10;;;;;;;8.40;2.40;;;;;;;;;;103433;1307;22462;-84
2023/01/02 06:47:36;;;;;;;6.30;2.30;;;;;;;;;;103247;1307;25291;-80
2023/01/02 06:50:03;;;;;;;7.20;2.00;;;;;;;;;;103451;1307;22432;-79
2023/01/02 06:52:30;;;;;;;7.40;2.10;;;;;;;;;;103076;1310;22528;-83
2023/01/02 06:54:56;;;;;;;7.80;2.50;;;;;;;;;;103365;1310;22487;-85
2023/01/02 06:57:23;;;;;;;6.70;2.50;;;;;;;;;;103287;1310;22455;-80
2023/01/02 06:59:49;;;;;;;8.40;2.50;;;;;;;;;;103285;1307;22476;-85
2023/01/02 07:02:16;;;;;;;8.60;2.30;;;;;;;;;;103300;1310;25496;-82
2023/01/02 07:04:43;;;;;;;10.90;3.30;;;;;;;;;;103319;1307;22467;-81
2023/01/02 07:07:09;;;;;;;10.70;3.10;;;;;;;;;;103346;1308;22723;-83
2023/01/02 07:09:36;;;;;;;8.10;2.70;;;;;;;;;;103322;1310;23091;-82
2023/01/02 07:12:03;;;;;;;11.50;2.60;;;;;;;;;;103335;1309;23892;-80
2023/01/02 07:14:29;;;;;;;8.40;3.00;;;;;;;;;;103051;1310;25338;-83
2023/01/02 07:16:56;;;;;;;8.10;2.70;;;;;;;;;;103268;1285;24218;-81
2023/01/02 07:19:23;;;;;;;8.60;3.00;;;;;;;;;;103186;1310;22585;-82
2023/01/02 07:21:49;;;;;;;7.70;2.60;;;;;;;;;;103282;1304;22447;-85
2023/01/02 07:24:16;;;;;;;8.90;3.00;;;;;;;;;;103400;1309;24229;-84
2023/01/02 07:26:43;;;;;;;7.00;2.60;;;;;;;;;;103287;1307;22874;-79
2023/01/02 07:29:09;;;;;;;8.10;2.40;;;;;;;;;;103151;1309;22539;-80
2023/01/02 07:31:36;;;;;;;7.60;2.80;;;;;;;;;;103296;1309;22480;-83
2023/01/02 07:34:03;;;;;;;8.70;2.30;;;;;;;;;;102926;1310;22547;-86
2023/01/02 07:36:29;;;;;;;8.80;2.20;;;;;;;;;;103138;1310;24288;-84
2023/01/02 07:38:56;;;;;;;10.40;3.30;;;;;;;;;;102960;1307;22485;-81
2023/01/02 07:41:24;;;;;;;7.50;2.40;;;;;;;;;;103045;1310;22463;-79
2023/01/02 07:43:52;;;;;;;10.10;3.00;;;;;;;;;;103089;1307;24213;-82
2023/01/02 07:46:19;;;;;;;8.20;3.20;;;;;;;;;;103131;1310;25560;-85
2023/01/02 07:48:46;;;;;;;9.80;3.30;;;;;;;;;;103185;1310;23299;-84
2023/01/02 07:51:13;;;;;;;9.20;2.70;;;;;;;;;;103379;1310;25255;-80
2023/01/02 07:53:41;;;;;;;8.40;2.50;;;;;;;;;;103037;1311;24406;-80
2023/01/02 07:56:07;;;;;;;10.20;2.90;;;;;;;;;;103243;1304;24291;-79
2023/01/02 07:58:34;;;;;;;7.00;2.60;;;;;;;;;;103009;1301;22483;-82
2023/01/02 08:01:08;;;;;;;11.40;2.90;;;;;;;;;;103019;1309;24247;-81
2023/01/02 08:03:35;;;;;;;9.00;2.40;;;;;;;;;;103341;1310;24537;-81
2023/01/02 08:06:03;;;;;;;7.50;2.30;;;;;;;;;;103325;1307;25251;-78
2023/01/02 08:08:30;;;;;;;6.20;1.90;;;;;;;;;;103146;1309;22565;-82
2023/01/02 08:10:56;;;;;;;7.70;2.30;;;;;;;;;;103317;1302;24465;-79
2023/01/02 08:13:23;;;;;;;6.50;2.20;;;;;;;;;;103141;1310;22559;-79
2023/01/02 08:15:50;;;;;;;9.20;2.80;;;;;;;;;;103050;1310;25293;-83
2023/01/02 08:18:16;;;;;;;6.80;2.40;;;;;;;;;;103284;1309;22480;-81
2023/01/02 08:20:43;;;;;;;8.70;2.60;;;;;;;;;;103280;1301;22474;-81
2023/01/02 08:23:10;;;;;;;7.00;2.30;;;;;;;;;;103222;1303;22473;-86
2023/01/02 08:25:36;;;;;;;7.50;2.90;;;;;;;;;;103511;1306;24212;-81
2023/01/02 08:28:03;;;;;;;7.00;2.60;;;;;;;;;;103403;1307;24254;-78
2023/01/02 08:30:29;;;;;;;6.60;2.50;;;;;;;;;;103454;1303;22541;-80
2023/01/02 08:32:56;;;;;;;9.90;2.60;;;;;;;;;;103345;1308;23884;-84
2023/01/02 08:35:23;;;;;;;9.30;2.80;;;;;;;;;;103180;1306;22451;-83
2023/01/02 08:37:49;;;;;;;8.90;2.70;;;;;;;;;;103529;1306;22584;-79
2023/01/02 08:40:16;;;;;;;7.00;2.50;;;;;;;;;;103324;1306;22462;-83
2023/01/02 08:42:43;;;;;;;7.10;2.20;;;;;;;;;;103396;1307;22488;-77
2023/01/02 08:45:10;;;;;;;6.60;2.40;;;;;;;;;;103494;1305;25298;-83
2023/01/02 08:47:37;;;;;;;8.70;2.60;;;;;;;;;;103597;1292;22924;-80
2023/01/02 08:50:05;;;;;;;8.30;2.70;;;;;;;;;;103420;1288;22594;-77
2023/01/02 08:52:32;;;;;;;6.60;2.80;;;;;;;;;;103461;1297;25406;-80
2023/01/02 08:55:02;;;;;;;9.30;3.30;;;;;;;;;;103575;1290;22466;-87
2023/01/02 08:57:29;;;;;;;10.80;3.70;;;;;;;;;;103670;1292;22472;-84
2023/01/02 08:59:56;;;;;;;10.00;4.00;;;;;;;;;;103658;1300;25881;-81
2023/01/02 09:02:22;;;;;;;10.00;3.80;;;;;;;;;;103455;1285;24292;-81
2023/01/02 09:04:49;;;;;;;9.80;3.40;;;;;;;;;;103624;1283;25283;-78
2023/01/02 09:07:16;;;;;;;8.30;3.50;;;;;;;;;;103544;1306;22490;-77
2023/01/02 09:09:43;;;;;;;8.60;3.10;;;;;;;;;;103524;1289;24269;-78
2023/01/02 09:12:09;;;;;;;7.60;3.00;;;;;;;;;;103453;1292;24250;-76
2023/01/02 09:14:36;;;;;;;9.90;3.20;;;;;;;;;;103328;1306;23861;-80
2023/01/02 09:17:03;;;;;;;8.90;3.40;;;;;;;;;;103469;1306;22472;-81
2023/01/02 09:19:30;;;;;;;8.60;3.10;;;;;;;;;;103194;1306;24302;-80
2023/01/02 09:21:57;;;;;;;7.70;2.90;;;;;;;;;;103415;1299;25269;-83
2023/01/02 09:24:24;;;;;;;8.90;3.00;;;;;;;;;;103462;1307;22422;-86
2023/01/02 09:26:52;;;;;;;9.40;3.30;;;;;;;;;;103742;1291;22461;-77
2023/01/02 09:29:19;;;;;;;8.00;2.70;;;;;;;;;;103515;1289;22458;-77
2023/01/02 09:31:46;;;;;;;8.70;3.20;;;;;;;;;;103680;1288;22548;-81
2023/01/02 09:34:15;;;;;;;8.80;3.10;;;;;;;;;;103583;1295;24242;-79
2023/01/02 09:36:42;;;;;;;8.20;3.00;;;;;;;;;;103443;1282;22586;-78
2023/01/02 09:39:10;;;;;;;10.90;3.40;;;;;;;;;;103463;1282;22468;-79
2023/01/02 09:41:41;;;;;;;11.10;3.40;;;;;;;;;;103623;1290;22679;-83
2023/01/02 09:44:20;;;;;;;10.80;3.40;;;;;;;;;;103612;1284;24427;-80
2023/01/02 09:46:50;;;;;;;10.00;3.20;;;;;;;;;;103703;1284;23237;-80
2023/01/02 09:49:21;;;;;;;10.70;3.60;;;;;;;;;;103518;1302;22501;-84
2023/01/02 09:51:47;;;;;;;7.70;3.10;;;;;;;;;;103603;1292;25230;-80
2023/01/02 09:54:21;;;;;;;7.40;2.70;;;;;;;;;;103586;1292;22598;-79
2023/01/02 09:56:51;;;;;;;7.50;3.10;;;;;;;;;;103437;1292;22461;-82
2023/01/02 09:59:31;;;;;;;8.10;2.90;;;;;;;;;;103634;1285;25376;-78
2023/01/02 10:02:23;;;;;;;8.40;3.20;;;;;;;;;;103728;1306;22589;-79
2023/01/02 10:05:09;;;;;;;9.40;3.80;;;;;;;;;;103714;1282;25325;-83
2023/01/02 10:07:49;;;;;;;12.80;4.10;;;;;;;;;;103673;1292;24252;-82
2023/01/02 10:10:20;;;;;;;9.70;4.10;;;;;;;;;;103613;1281;23844;-78
2023/01/02 10:13:05;;;;;;;14.10;4.90;;;;;;;;;;103671;1281;25540;-79
2023/01/02 10:15:32;;;;;;;10.40;4.20;;;;;;;;;;103514;1282;24418;-83
2023/01/02 10:18:03;;;;;;;10.20;4.00;;;;;;;;;;103562;1292;24203;-81
2023/01/02 10:20:34;;;;;;;9.80;3.40;;;;;;;;;;103532;1306;25385;-80
2023/01/02 10:23:08;;;;;;;13.10;3.50;;;;;;;;;;103431;1285;25329;-81
2023/01/02 10:25:52;;;;;;;11.30;4.40;;;;;;;;;;103523;1288;25193;-79
2023/01/02 10:28:25;;;;;;;12.10;4.70;;;;;;;;;;103494;1281;24392;-78
2023/01/02 10:30:55;;;;;;;9.00;4.10;;;;;;;;;;103271;1295;25387;-79
2023/01/02 10:33:25;;;;;;;9.80;4.30;;;;;;;;;;103525;1290;23840;-80
2023/01/02 10:36:02;;;;;;;10.40;4.20;;;;;;;;;;103684;1292;23509;-84
2023/01/02 10:38:38;;;;;;;10.20;4.60;;;;;;;;;;103324;1295;22469;-86
2023/01/02 10:41:05;;;;;;;9.10;4.10;;;;;;;;;;103460;1306;22627;-81
2023/01/02 10:43:33;;;;;;;11.70;4.00;;;;;;;;;;103465;1306;24304;-86
2023/01/02 10:46:02;;;;;;;12.90;4.50;;;;;;;;;;103578;1305;22474;-81
2023/01/02 10:48:30;;;;;;;12.60;5.40;;;;;;;;;;103734;1289;22488;-82
2023/01/02 10:51:01;;;;;;;11.30;5.30;;;;;;;;;;103567;1289;25417;-82
2023/01/02 10:53:30;;;;;;;11.40;5.30;;;;;;;;;;103641;1285;25743;-79
2023/01/02 10:56:02;;;;;;;13.60;5.40;;;;;;;;;;103271;1294;25203;-83
2023/01/02 10:58:31;;;;;;;10.60;4.20;;;;;;;;;;103522;1282;25528;-83
2023/01/02 11:01:17;;;;;;;14.40;6.60;;;;;;;;;;103355;1285;22443;-80
2023/01/02 11:03:45;;;;;;;21.10;5.40;;;;;;;;;;103338;1287;24286;-77
2023/01/02 11:06:19;;;;;;;12.10;5.10;;;;;;;;;;103649;1290;24180;-79
2023/01/02 11:08:57;;;;;;;12.70;4.90;;;;;;;;;;103548;1291;22470;-80
2023/01/02 11:11:24;;;;;;;10.10;4.80;;;;;;;;;;103679;1289;24211;-85
2023/01/02 11:13:54;;;;;;;11.80;4.80;;;;;;;;;;103789;1307;22462;-84
2023/01/02 11:16:25;;;;;;;11.20;4.50;;;;;;;;;;103551;1296;22503;-77
2023/01/02 11:18:57;;;;;;;11.50;5.20;;;;;;;;;;103597;1307;22469;-84
2023/01/02 11:21:29;;;;;;;12.00;5.70;;;;;;;;;;103715;1306;22585;-80
2023/01/02 11:23:57;;;;;;;16.60;7.00;;;;;;;;;;103499;1306;22506;-78
2023/01/02 11:26:23;;;;;;;14.90;5.70;;;;;;;;;;103543;1289;24321;-78
2023/01/02 11:28:53;;;;;;;13.00;6.10;;;;;;;;;;103526;1287;24418;-78
2023/01/02 11:31:20;;;;;;;12.80;5.20;;;;;;;;;;103729;1278;21713;-84
2023/01/02 11:33:47;;;;;;;12.30;5.10;;;;;;;;;;103672;1281;24243;-78
2023/01/02 11:36:15;;;;;;;13.20;5.10;;;;;;;;;;103672;1283;22486;-78
2023/01/02 11:38:47;;;;;;;11.50;4.60;;;;;;;;;;103600;1292;25005;-78
2023/01/02 11:41:23;;;;;;;10.80;5.20;;;;;;;;;;103484;1306;25314;-79
2023/01/02 11:43:56;;;;;;;16.30;8.40;;;;;;;;;;103494;1306;22599;-83
2023/01/02 11:46:31;;;;;;;11.00;4.40;;;;;;;;;;103500;1306;24234;-84
2023/01/02 11:49:06;;;;;;;9.60;4.30;;;;;;;;;;103592;1306;22487;-79
2023/01/02 11:51:34;;;;;;;9.40;4.30;;;;;;;;;;103458;1308;25348;-84
2023/01/02 11:54:02;;;;;;;10.10;4.40;;;;;;;;;;103630;1290;25360;-79
2023/01/02 11:56:36;;;;;;;10.20;4.20;;;;;;;;;;103451;1290;25534;-86
2023/01/02 11:59:21;;;;;;;11.10;4.60;;;;;;;;;;103532;1284;24838;-81
2023/01/02 12:01:57;;;;;;;12.00;4.80;;;;;;;;;;103657;1292;24215;-84
2023/01/02 12:04:24;;;;;;;10.50;4.70;;;;;;;;;;103564;1300;25237;-82
2023/01/02 12:07:07;;;;;;;10.20;4.70;;;;;;;;;;103550;1307;24710;-85
2023/01/02 12:09:43;;;;;;;13.20;4.90;;;;;;;;;;103502;1306;22591;-84
2023/01/02 12:12:20;;;;;;;9.60;4.00;;;;;;;;;;103537;1307;22454;-84
2023/01/02 12:14:53;;;;;;;10.50;4.10;;;;;;;;;;103573;1307;24262;-83
2023/01/02 12:17:20;;;;;;;10.40;4.30;;;;;;;;;;103479;1305;22492;-83
2023/01/02 12:19:55;;;;;;;12.70;6.00;;;;;;;;;;103520;1306;22466;-81
2023/01/02 12:22:21;;;;;;;13.90;6.00;;;;;;;;;;103542;1307;25220;-82
2023/01/02 12:24:48;;;;;;;11.60;5.30;;;;;;;;;;103503;1305;25496;-79
2023/01/02 12:27:34;;;;;;;9.30;4.10;;;;;;;;;;103546;1305;24244;-83
2023/01/02 12:30:10;;;;;;;9.30;4.00;;;;;;;;;;103580;1304;25252;-85
2023/01/02 12:32:37;;;;;;;10.60;4.50;;;;;;;;;;103516;1307;25661;-81
2023/01/02 12:35:04;;;;;;;15.60;5.20;;;;;;;;;;103532;1307;22474;-79
2023/01/02 12:37:42;;;;;;;11.50;4.30;;;;;;;;;;103619;1306;24398;-81
2023/01/02 12:40:17;;;;;;;9.50;3.90;;;;;;;;;;103543;1302;25345;-81
2023/01/02 12:42:53;;;;;;;16.20;4.50;;;;;;;;;;103571;1306;25214;-79
2023/01/02 12:45:23;;;;;;;12.50;4.80;;;;;;;;;;103444;1306;24422;-85
2023/01/02 12:48:10;;;;;;;14.10;5.30;;;;;;;;;;103604;1288;21803;-78
2023/01/02 12:50:48;;;;;;;11.70;4.80;;;;;;;;;;103116;1297;22550;-82
2023/01/02 12:53:36;;;;;;;13.20;5.10;;;;;;;;;;103072;1313;22468;-80
2023/01/02 12:56:12;;;;;;;14.40;5.90;;;;;;;;;;102986;1313;26546;-82
2023/01/02 12:58:38;;;;;;;11.30;4.70;;;;;;;;;;102961;1305;25493;-78
2023/01/02 13:01:11;;;;;;;14.30;4.80;;;;;;;;;;103024;1303;25465;-83
2023/01/02 13:03:42;;;;;;;11.80;4.90;;;;;;;;;;103033;1306;22461;-81
2023/01/02 13:06:08;;;;;;;9.60;3.90;;;;;;;;;;102922;1312;24727;-80
2023/01/02 13:08:51;;;;;;;9.80;4.00;;;;;;;;;;103158;1281;24335;-80
2023/01/02 13:11:28;;;;;;;12.00;4.60;;;;;;;;;;103073;1299;23901;-80
2023/01/02 13:13:55;;;;;;;10.60;4.20;;;;;;;;;;103007;1312;24246;-79
2023/01/02 13:16:24;;;;;;;11.40;4.80;;;;;;;;;;103032;1297;22485;-82
2023/01/02 13:18:56;;;;;;;13.00;4.40;;;;;;;;;;103075;1291;24234;-81
2023/01/02 13:21:27;;;;;;;15.50;4.80;;;;;;;;;;102992;1301;22470;-79
2023/01/02 13:23:55;;;;;;;10.80;4.60;;;;;;;;;;103112;1297;22542;-79
2023/01/02 13:26:25;;;;;;;11.20;5.30;;;;;;;;;;103137;1296;22542;-83
2023/01/02 13:28:51;;;;;;;13.00;5.80;;;;;;;;;;103357;1306;22483;-86
2023/01/02 13:31:18;;;;;;;16.10;6.30;;;;;;;;;;103682;1283;24307;-83
2023/01/02 13:33:48;;;;;;;11.30;5.50;;;;;;;;;;103658;1291;22478;-85
2023/01/02 13:36:21;;;;;;;11.00;5.60;;;;;;;;;;103495;1291;22469;-79
2023/01/02 13:38:52;;;;;;;11.40;5.10;;;;;;;;;;103646;1281;22479;-80
2023/01/02 13:41:19;;;;;;;10.70;4.90;;;;;;;;;;103650;1292;22516;-81
2023/01/02 13:43:51;;;;;;;11.00;5.20;;;;;;;;;;103507;1286;25905;-79
2023/01/02 13:46:23;;;;;;;12.30;6.00;;;;;;;;;;103504;1285;23889;-81
2023/01/02 13:48:52;;;;;;;12.80;6.60;;;;;;;;;;103503;1300;24431;-81
2023/01/02 13:51:27;;;;;;;15.60;6.70;;;;;;;;;;103254;1280;22802;-79
2023/01/02 13:53:54;;;;;;;14.90;6.20;;;;;;;;;;103535;1306;22495;-80
2023/01/02 13:56:25;;;;;;;13.00;6.60;;;;;;;;;;103648;1291;24296;-80
2023/01/02 14:04:07;;;;;;;15.90;6.80;;;;;;;;;;100453;1339;545354;-84
2023/01/02 14:06:37;;;;;;;11.80;5.80;;;;;;;;;;102519;1319;24245;-81
2023/01/02 14:09:04;;;;;;;11.40;5.50;;;;;;;;;;102427;1319;22533;-80
2023/01/02 14:11:33;;;;;;;11.60;5.20;;;;;;;;;;106706;1310;23259;-79
2023/01/02 14:14:07;;;;;;;12.50;5.60;;;;;;;;;;106798;1303;22052;-80
2023/01/02 14:16:54;;;;;;;12.10;5.20;;;;;;;;;;106594;1297;1528540;-80
2023/01/02 14:19:24;;;;;;;9.30;5.00;;;;;;;;;;106672;1310;22070;-81
2023/01/02 14:21:53;;;;;;;13.50;6.50;;;;;;;;;;106558;1310;22194;-81
2023/01/02 14:24:30;;;;;;;14.70;6.90;;;;;;;;;;106882;1300;22217;-81
2023/01/02 14:27:17;;;;;;;15.40;7.00;;;;;;;;;;106992;1300;22091;-80
2023/01/02 14:29:58;;;;;;;13.00;6.50;;;;;;;;;;106708;1310;22111;-80
2023/01/02 14:32:45;;;;;;;13.60;5.90;;;;;;;;;;106688;1304;22317;-80
2023/01/02 14:35:12;;;;;;;14.80;6.60;;;;;;;;;;106938;1305;22060;-80
2023/01/02 14:37:46;;;;;;;13.10;6.50;;;;;;;;;;106880;1306;22101;-80
2023/01/02 14:40:19;;;;;;;18.30;7.30;;;;;;;;;;106846;1285;22158;-79
2023/01/02 14:45:49;;;;;;;15.70;7.40;;;;;;;;;;106990;1306;22067;-78
2023/01/02 14:48:17;;;;;;;17.40;8.50;;;;;;;;;;106941;1304;22098;-80
2023/01/02 14:50:47;;;;;;;17.90;7.40;;;;;;;;;;106906;1304;22773;-80
2023/01/02 14:53:17;;;;;;;19.00;8.30;;;;;;;;;;106910;1283;22204;-80